sensor_id;sensor_type;location;lat;lon;timestamp;P1;durP1;ratioP1;P2;durP2;ratioP2
31270;SDS011;17904;47.420;9.310;2022-07-17T00:00:21;7.55;;;3.80;;
31270;SDS011;17904;47.420;9.310;2022-07-17T00:05:15;5.25;;;3.65;;
31270;SDS011;17904;47.420;9.310;2022-07-17T00:07:43;4.75;;;3.17;;
31270;SDS011;17904;47.420;9.310;2022-07-17T00:10:10;7.90;;;3.63;;
31270;SDS011;17904;47.420;9.310;2022-07-17T00:15:03;3.45;;;2.80;;
31270;SDS011;17904;47.420;9.310;2022-07-17T00:17:31;4.00;;;3.00;;
31270;SDS011;17904;47.420;9.310;2022-07-17T00:22:24;5.60;;;3.17;;
31270;SDS011;17904;47.420;9.310;2022-07-17T00:27:18;6.03;;;3.28;;
31270;SDS011;17904;47.420;9.310;2022-07-17T00:32:11;4.20;;;3.00;;
31270;SDS011;17904;47.420;9.310;2022-07-17T00:37:05;4.22;;;3.30;;
31270;SDS011;17904;47.420;9.310;2022-07-17T00:39:33;4.85;;;3.28;;
31270;SDS011;17904;47.420;9.310;2022-07-17T00:42:00;5.72;;;3.35;;
31270;SDS011;17904;47.420;9.310;2022-07-17T00:46:54;5.45;;;3.67;;
31270;SDS011;17904;47.420;9.310;2022-07-17T00:49:20;4.88;;;3.25;;
31270;SDS011;17904;47.420;9.310;2022-07-17T00:51:47;3.63;;;3.25;;
31270;SDS011;17904;47.420;9.310;2022-07-17T00:54:15;3.90;;;2.88;;
31270;SDS011;17904;47.420;9.310;2022-07-17T00:56:45;4.22;;;3.03;;
31270;SDS011;17904;47.420;9.310;2022-07-17T00:59:13;4.13;;;2.78;;
31270;SDS011;17904;47.420;9.310;2022-07-17T01:01:41;6.40;;;3.35;;
31270;SDS011;17904;47.420;9.310;2022-07-17T01:04:09;4.35;;;3.45;;
31270;SDS011;17904;47.420;9.310;2022-07-17T01:06:36;3.83;;;2.88;;
31270;SDS011;17904;47.420;9.310;2022-07-17T01:09:03;4.22;;;3.17;;
31270;SDS011;17904;47.420;9.310;2022-07-17T01:11:30;13.27;;;3.90;;
31270;SDS011;17904;47.420;9.310;2022-07-17T01:13:57;6.20;;;3.60;;
31270;SDS011;17904;47.420;9.310;2022-07-17T01:18:52;4.50;;;3.55;;
31270;SDS011;17904;47.420;9.310;2022-07-17T01:21:20;6.78;;;3.00;;
31270;SDS011;17904;47.420;9.310;2022-07-17T01:23:48;5.65;;;3.75;;
31270;SDS011;17904;47.420;9.310;2022-07-17T01:28:42;7.80;;;3.85;;
31270;SDS011;17904;47.420;9.310;2022-07-17T01:31:08;5.25;;;2.90;;
31270;SDS011;17904;47.420;9.310;2022-07-17T01:33:36;4.78;;;3.22;;
31270;SDS011;17904;47.420;9.310;2022-07-17T01:36:03;6.90;;;3.47;;
31270;SDS011;17904;47.420;9.310;2022-07-17T01:40:57;3.30;;;2.85;;
31270;SDS011;17904;47.420;9.310;2022-07-17T01:43:24;5.10;;;3.17;;
31270;SDS011;17904;47.420;9.310;2022-07-17T01:45:51;4.40;;;3.60;;
31270;SDS011;17904;47.420;9.310;2022-07-17T01:50:54;4.25;;;3.25;;
31270;SDS011;17904;47.420;9.310;2022-07-17T01:53:21;4.68;;;3.20;;
31270;SDS011;17904;47.420;9.310;2022-07-17T01:55:48;5.55;;;2.83;;
31270;SDS011;17904;47.420;9.310;2022-07-17T01:58:15;4.20;;;3.08;;
31270;SDS011;17904;47.420;9.310;2022-07-17T02:00:42;6.20;;;2.90;;
31270;SDS011;17904;47.420;9.310;2022-07-17T02:03:10;4.30;;;2.67;;
31270;SDS011;17904;47.420;9.310;2022-07-17T02:05:36;4.65;;;3.03;;
31270;SDS011;17904;47.420;9.310;2022-07-17T02:08:04;6.25;;;3.08;;
31270;SDS011;17904;47.420;9.310;2022-07-17T02:10:31;5.43;;;3.05;;
31270;SDS011;17904;47.420;9.310;2022-07-17T02:15:24;4.20;;;2.65;;
31270;SDS011;17904;47.420;9.310;2022-07-17T02:17:51;3.47;;;2.63;;
31270;SDS011;17904;47.420;9.310;2022-07-17T02:20:19;6.80;;;3.30;;
31270;SDS011;17904;47.420;9.310;2022-07-17T02:22:46;6.50;;;4.00;;
31270;SDS011;17904;47.420;9.310;2022-07-17T02:27:40;7.18;;;3.08;;
31270;SDS011;17904;47.420;9.310;2022-07-17T02:30:08;3.45;;;2.60;;
31270;SDS011;17904;47.420;9.310;2022-07-17T02:32:37;3.53;;;2.80;;
31270;SDS011;17904;47.420;9.310;2022-07-17T02:35:05;3.83;;;2.70;;
31270;SDS011;17904;47.420;9.310;2022-07-17T02:37:33;3.80;;;3.15;;
31270;SDS011;17904;47.420;9.310;2022-07-17T02:40:00;4.35;;;3.72;;
31270;SDS011;17904;47.420;9.310;2022-07-17T02:44:54;4.65;;;2.95;;
31270;SDS011;17904;47.420;9.310;2022-07-17T02:49:57;4.30;;;3.10;;
31270;SDS011;17904;47.420;9.310;2022-07-17T02:52:27;4.22;;;3.40;;
31270;SDS011;17904;47.420;9.310;2022-07-17T02:54:54;6.50;;;2.50;;
31270;SDS011;17904;47.420;9.310;2022-07-17T02:57:21;4.40;;;2.90;;
31270;SDS011;17904;47.420;9.310;2022-07-17T02:59:48;5.03;;;2.83;;
31270;SDS011;17904;47.420;9.310;2022-07-17T03:02:14;8.85;;;3.67;;
31270;SDS011;17904;47.420;9.310;2022-07-17T03:07:08;4.28;;;2.92;;
31270;SDS011;17904;47.420;9.310;2022-07-17T03:12:01;7.90;;;3.03;;
31270;SDS011;17904;47.420;9.310;2022-07-17T03:14:28;5.07;;;3.00;;
31270;SDS011;17904;47.420;9.310;2022-07-17T03:19:22;6.60;;;3.87;;
31270;SDS011;17904;47.420;9.310;2022-07-17T03:21:49;6.45;;;3.40;;
31270;SDS011;17904;47.420;9.310;2022-07-17T03:24:16;5.03;;;2.97;;
31270;SDS011;17904;47.420;9.310;2022-07-17T03:26:43;3.55;;;3.20;;
31270;SDS011;17904;47.420;9.310;2022-07-17T03:29:10;5.20;;;3.08;;
31270;SDS011;17904;47.420;9.310;2022-07-17T03:31:37;4.88;;;2.75;;
31270;SDS011;17904;47.420;9.310;2022-07-17T03:34:05;5.57;;;3.05;;
31270;SDS011;17904;47.420;9.310;2022-07-17T03:38:58;4.72;;;3.30;;
31270;SDS011;17904;47.420;9.310;2022-07-17T03:41:25;7.43;;;3.80;;
31270;SDS011;17904;47.420;9.310;2022-07-17T03:43:52;3.72;;;3.28;;
31270;SDS011;17904;47.420;9.310;2022-07-17T03:46:19;4.38;;;3.40;;
31270;SDS011;17904;47.420;9.310;2022-07-17T03:48:47;4.10;;;3.30;;
31270;SDS011;17904;47.420;9.310;2022-07-17T03:51:13;4.13;;;2.78;;
31270;SDS011;17904;47.420;9.310;2022-07-17T03:53:40;7.35;;;3.20;;
31270;SDS011;17904;47.420;9.310;2022-07-17T03:58:34;4.18;;;3.17;;
31270;SDS011;17904;47.420;9.310;2022-07-17T04:03:28;3.30;;;3.00;;
31270;SDS011;17904;47.420;9.310;2022-07-17T04:08:22;8.05;;;3.13;;
31270;SDS011;17904;47.420;9.310;2022-07-17T04:13:15;5.65;;;3.55;;
31270;SDS011;17904;47.420;9.310;2022-07-17T04:15:43;4.47;;;3.25;;
31270;SDS011;17904;47.420;9.310;2022-07-17T04:18:16;5.47;;;3.38;;
31270;SDS011;17904;47.420;9.310;2022-07-17T04:20:43;6.00;;;3.20;;
31270;SDS011;17904;47.420;9.310;2022-07-17T04:23:10;4.68;;;3.15;;
31270;SDS011;17904;47.420;9.310;2022-07-17T04:28:04;7.53;;;3.72;;
31270;SDS011;17904;47.420;9.310;2022-07-17T04:32:58;5.78;;;3.42;;
31270;SDS011;17904;47.420;9.310;2022-07-17T04:37:52;4.07;;;3.63;;
31270;SDS011;17904;47.420;9.310;2022-07-17T04:40:18;4.30;;;3.00;;
31270;SDS011;17904;47.420;9.310;2022-07-17T04:45:12;4.30;;;3.22;;
31270;SDS011;17904;47.420;9.310;2022-07-17T04:47:42;6.38;;;3.28;;
31270;SDS011;17904;47.420;9.310;2022-07-17T04:52:36;5.50;;;3.27;;
31270;SDS011;17904;47.420;9.310;2022-07-17T04:55:03;4.72;;;3.33;;
31270;SDS011;17904;47.420;9.310;2022-07-17T04:57:30;4.40;;;3.05;;
31270;SDS011;17904;47.420;9.310;2022-07-17T05:02:24;6.78;;;3.25;;
31270;SDS011;17904;47.420;9.310;2022-07-17T05:04:51;6.28;;;3.35;;
31270;SDS011;17904;47.420;9.310;2022-07-17T05:07:18;3.83;;;3.42;;
31270;SDS011;17904;47.420;9.310;2022-07-17T05:09:45;8.73;;;3.30;;
31270;SDS011;17904;47.420;9.310;2022-07-17T05:12:12;7.10;;;3.28;;
31270;SDS011;17904;47.420;9.310;2022-07-17T05:14:38;11.52;;;3.75;;
31270;SDS011;17904;47.420;9.310;2022-07-17T05:17:05;5.53;;;2.78;;
31270;SDS011;17904;47.420;9.310;2022-07-17T05:21:59;3.95;;;3.10;;
31270;SDS011;17904;47.420;9.310;2022-07-17T05:26:52;4.90;;;3.40;;
31270;SDS011;17904;47.420;9.310;2022-07-17T05:29:19;5.78;;;4.13;;
31270;SDS011;17904;47.420;9.310;2022-07-17T05:31:46;7.47;;;2.80;;
31270;SDS011;17904;47.420;9.310;2022-07-17T05:34:14;5.05;;;3.42;;
31270;SDS011;17904;47.420;9.310;2022-07-17T05:36:40;3.83;;;2.83;;
31270;SDS011;17904;47.420;9.310;2022-07-17T05:39:07;7.45;;;2.97;;
31270;SDS011;17904;47.420;9.310;2022-07-17T05:41:34;3.72;;;3.33;;
31270;SDS011;17904;47.420;9.310;2022-07-17T05:46:28;6.45;;;3.53;;
31270;SDS011;17904;47.420;9.310;2022-07-17T05:48:55;6.28;;;3.03;;
31270;SDS011;17904;47.420;9.310;2022-07-17T05:53:50;7.35;;;3.30;;
31270;SDS011;17904;47.420;9.310;2022-07-17T05:56:17;7.50;;;3.40;;
31270;SDS011;17904;47.420;9.310;2022-07-17T05:58:44;5.50;;;3.60;;
31270;SDS011;17904;47.420;9.310;2022-07-17T06:03:38;5.78;;;2.95;;
31270;SDS011;17904;47.420;9.310;2022-07-17T06:08:32;10.02;;;3.60;;
31270;SDS011;17904;47.420;9.310;2022-07-17T06:10:59;5.75;;;3.33;;
31270;SDS011;17904;47.420;9.310;2022-07-17T06:15:53;6.35;;;3.30;;
31270;SDS011;17904;47.420;9.310;2022-07-17T06:18:22;5.05;;;3.85;;
31270;SDS011;17904;47.420;9.310;2022-07-17T06:20:50;6.30;;;3.65;;
31270;SDS011;17904;47.420;9.310;2022-07-17T06:25:43;4.20;;;3.33;;
31270;SDS011;17904;47.420;9.310;2022-07-17T06:28:10;5.53;;;3.17;;
31270;SDS011;17904;47.420;9.310;2022-07-17T06:30:37;5.63;;;3.33;;
31270;SDS011;17904;47.420;9.310;2022-07-17T06:33:04;4.68;;;3.10;;
31270;SDS011;17904;47.420;9.310;2022-07-17T06:38:01;6.47;;;3.47;;
31270;SDS011;17904;47.420;9.310;2022-07-17T06:40:29;4.25;;;3.53;;
31270;SDS011;17904;47.420;9.310;2022-07-17T06:42:55;5.80;;;3.67;;
31270;SDS011;17904;47.420;9.310;2022-07-17T06:47:49;3.75;;;3.22;;
31270;SDS011;17904;47.420;9.310;2022-07-17T06:52:43;4.38;;;3.80;;
31270;SDS011;17904;47.420;9.310;2022-07-17T06:55:12;9.55;;;3.75;;
31270;SDS011;17904;47.420;9.310;2022-07-17T06:57:39;4.70;;;3.72;;
31270;SDS011;17904;47.420;9.310;2022-07-17T07:00:06;5.82;;;3.83;;
31270;SDS011;17904;47.420;9.310;2022-07-17T07:02:35;4.88;;;3.55;;
31270;SDS011;17904;47.420;9.310;2022-07-17T07:05:03;10.98;;;4.70;;
31270;SDS011;17904;47.420;9.310;2022-07-17T07:07:31;7.68;;;3.90;;
31270;SDS011;17904;47.420;9.310;2022-07-17T07:12:24;5.25;;;4.00;;
31270;SDS011;17904;47.420;9.310;2022-07-17T07:17:17;6.57;;;2.95;;
31270;SDS011;17904;47.420;9.310;2022-07-17T07:19:44;5.93;;;3.92;;
31270;SDS011;17904;47.420;9.310;2022-07-17T07:22:11;6.63;;;3.67;;
31270;SDS011;17904;47.420;9.310;2022-07-17T07:27:05;7.22;;;3.97;;
31270;SDS011;17904;47.420;9.310;2022-07-17T07:29:32;9.43;;;4.10;;
31270;SDS011;17904;47.420;9.310;2022-07-17T07:34:26;4.97;;;3.43;;
31270;SDS011;17904;47.420;9.310;2022-07-17T07:36:52;7.53;;;4.57;;
31270;SDS011;17904;47.420;9.310;2022-07-17T07:39:19;4.20;;;2.97;;
31270;SDS011;17904;47.420;9.310;2022-07-17T07:41:46;5.72;;;3.40;;
31270;SDS011;17904;47.420;9.310;2022-07-17T07:44:13;9.18;;;3.60;;
31270;SDS011;17904;47.420;9.310;2022-07-17T07:46:51;8.00;;;4.20;;
31270;SDS011;17904;47.420;9.310;2022-07-17T07:49:18;5.65;;;4.07;;
31270;SDS011;17904;47.420;9.310;2022-07-17T07:51:45;5.85;;;3.58;;
31270;SDS011;17904;47.420;9.310;2022-07-17T07:54:29;9.30;;;4.50;;
31270;SDS011;17904;47.420;9.310;2022-07-17T07:56:56;4.72;;;3.45;;
31270;SDS011;17904;47.420;9.310;2022-07-17T07:59:23;7.75;;;4.00;;
31270;SDS011;17904;47.420;9.310;2022-07-17T08:01:50;5.85;;;3.47;;
31270;SDS011;17904;47.420;9.310;2022-07-17T08:04:17;4.47;;;3.85;;
31270;SDS011;17904;47.420;9.310;2022-07-17T08:06:44;4.72;;;3.55;;
31270;SDS011;17904;47.420;9.310;2022-07-17T08:09:11;5.03;;;3.67;;
31270;SDS011;17904;47.420;9.310;2022-07-17T08:11:37;6.38;;;3.40;;
31270;SDS011;17904;47.420;9.310;2022-07-17T08:14:04;6.15;;;3.67;;
31270;SDS011;17904;47.420;9.310;2022-07-17T08:16:41;6.25;;;3.97;;
31270;SDS011;17904;47.420;9.310;2022-07-17T08:19:09;5.78;;;3.50;;
31270;SDS011;17904;47.420;9.310;2022-07-17T08:21:36;10.95;;;3.97;;
31270;SDS011;17904;47.420;9.310;2022-07-17T08:24:03;12.70;;;3.42;;
31270;SDS011;17904;47.420;9.310;2022-07-17T08:26:30;4.75;;;3.75;;
31270;SDS011;17904;47.420;9.310;2022-07-17T08:28:57;6.55;;;3.13;;
31270;SDS011;17904;47.420;9.310;2022-07-17T08:31:24;6.32;;;3.10;;
31270;SDS011;17904;47.420;9.310;2022-07-17T08:33:51;4.47;;;3.00;;
31270;SDS011;17904;47.420;9.310;2022-07-17T08:36:18;8.93;;;3.25;;
31270;SDS011;17904;47.420;9.310;2022-07-17T08:38:45;4.47;;;3.10;;
31270;SDS011;17904;47.420;9.310;2022-07-17T08:41:15;8.02;;;2.97;;
31270;SDS011;17904;47.420;9.310;2022-07-17T08:43:44;4.25;;;2.80;;
31270;SDS011;17904;47.420;9.310;2022-07-17T08:46:13;5.32;;;3.60;;
31270;SDS011;17904;47.420;9.310;2022-07-17T08:48:44;6.15;;;3.50;;
31270;SDS011;17904;47.420;9.310;2022-07-17T08:51:14;8.77;;;2.65;;
31270;SDS011;17904;47.420;9.310;2022-07-17T08:53:43;7.28;;;3.10;;
31270;SDS011;17904;47.420;9.310;2022-07-17T08:56:10;4.45;;;2.90;;
31270;SDS011;17904;47.420;9.310;2022-07-17T08:58:37;5.30;;;3.05;;
31270;SDS011;17904;47.420;9.310;2022-07-17T09:01:04;6.57;;;3.17;;
31270;SDS011;17904;47.420;9.310;2022-07-17T09:03:32;3.95;;;3.10;;
31270;SDS011;17904;47.420;9.310;2022-07-17T09:06:20;5.07;;;2.95;;
31270;SDS011;17904;47.420;9.310;2022-07-17T09:08:48;5.93;;;3.22;;
31270;SDS011;17904;47.420;9.310;2022-07-17T09:11:26;6.30;;;3.00;;
31270;SDS011;17904;47.420;9.310;2022-07-17T09:13:55;5.30;;;3.38;;
31270;SDS011;17904;47.420;9.310;2022-07-17T09:16:22;6.18;;;2.85;;
31270;SDS011;17904;47.420;9.310;2022-07-17T09:18:50;4.93;;;2.78;;
31270;SDS011;17904;47.420;9.310;2022-07-17T09:21:21;5.75;;;2.67;;
31270;SDS011;17904;47.420;9.310;2022-07-17T09:24:00;4.32;;;2.75;;
31270;SDS011;17904;47.420;9.310;2022-07-17T09:26:29;4.88;;;2.90;;
31270;SDS011;17904;47.420;9.310;2022-07-17T09:28:57;6.57;;;3.40;;
31270;SDS011;17904;47.420;9.310;2022-07-17T09:31:30;4.80;;;2.53;;
31270;SDS011;17904;47.420;9.310;2022-07-17T09:33:58;4.22;;;2.53;;
31270;SDS011;17904;47.420;9.310;2022-07-17T09:36:26;9.23;;;3.20;;
31270;SDS011;17904;47.420;9.310;2022-07-17T09:38:54;6.05;;;2.75;;
31270;SDS011;17904;47.420;9.310;2022-07-17T09:41:23;10.18;;;2.95;;
31270;SDS011;17904;47.420;9.310;2022-07-17T09:43:56;2.97;;;2.72;;
31270;SDS011;17904;47.420;9.310;2022-07-17T09:46:27;3.70;;;2.88;;
31270;SDS011;17904;47.420;9.310;2022-07-17T09:49:01;5.38;;;2.63;;
31270;SDS011;17904;47.420;9.310;2022-07-17T09:51:32;10.98;;;3.15;;
31270;SDS011;17904;47.420;9.310;2022-07-17T09:54:02;6.60;;;2.53;;
31270;SDS011;17904;47.420;9.310;2022-07-17T09:56:31;11.30;;;3.38;;
31270;SDS011;17904;47.420;9.310;2022-07-17T10:01:31;4.70;;;3.13;;
31270;SDS011;17904;47.420;9.310;2022-07-17T10:04:01;3.40;;;2.78;;
31270;SDS011;17904;47.420;9.310;2022-07-17T10:06:28;3.33;;;2.53;;
31270;SDS011;17904;47.420;9.310;2022-07-17T10:08:57;2.65;;;2.20;;
31270;SDS011;17904;47.420;9.310;2022-07-17T10:11:25;5.28;;;2.50;;
31270;SDS011;17904;47.420;9.310;2022-07-17T10:14:13;4.28;;;2.95;;
31270;SDS011;17904;47.420;9.310;2022-07-17T10:16:42;3.78;;;2.53;;
31270;SDS011;17904;47.420;9.310;2022-07-17T10:19:15;4.30;;;2.45;;
31270;SDS011;17904;47.420;9.310;2022-07-17T10:24:25;6.50;;;2.42;;
31270;SDS011;17904;47.420;9.310;2022-07-17T10:26:53;6.30;;;2.28;;
31270;SDS011;17904;47.420;9.310;2022-07-17T10:29:33;3.75;;;2.10;;
31270;SDS011;17904;47.420;9.310;2022-07-17T10:32:02;5.40;;;2.13;;
31270;SDS011;17904;47.420;9.310;2022-07-17T10:34:37;4.25;;;2.40;;
31270;SDS011;17904;47.420;9.310;2022-07-17T10:39:51;3.75;;;2.30;;
31270;SDS011;17904;47.420;9.310;2022-07-17T10:45:18;3.60;;;2.35;;
31270;SDS011;17904;47.420;9.310;2022-07-17T10:47:56;3.70;;;2.20;;
31270;SDS011;17904;47.420;9.310;2022-07-17T10:50:26;7.47;;;2.30;;
31270;SDS011;17904;47.420;9.310;2022-07-17T10:53:01;2.45;;;2.13;;
31270;SDS011;17904;47.420;9.310;2022-07-17T10:55:55;3.73;;;2.33;;
31270;SDS011;17904;47.420;9.310;2022-07-17T10:58:33;8.00;;;1.92;;
31270;SDS011;17904;47.420;9.310;2022-07-17T11:01:10;3.70;;;2.03;;
31270;SDS011;17904;47.420;9.310;2022-07-17T11:03:43;4.07;;;2.40;;
31270;SDS011;17904;47.420;9.310;2022-07-17T11:06:16;2.38;;;2.05;;
31270;SDS011;17904;47.420;9.310;2022-07-17T11:08:55;3.88;;;2.30;;
31270;SDS011;17904;47.420;9.310;2022-07-17T11:11:40;2.63;;;2.30;;
31270;SDS011;17904;47.420;9.310;2022-07-17T11:14:19;2.90;;;1.95;;
31270;SDS011;17904;47.420;9.310;2022-07-17T11:16:48;7.88;;;2.72;;
31270;SDS011;17904;47.420;9.310;2022-07-17T11:22:10;3.03;;;1.83;;
31270;SDS011;17904;47.420;9.310;2022-07-17T11:24:41;4.43;;;2.03;;
31270;SDS011;17904;47.420;9.310;2022-07-17T11:27:10;7.63;;;2.63;;
31270;SDS011;17904;47.420;9.310;2022-07-17T11:29:40;5.07;;;1.98;;
31270;SDS011;17904;47.420;9.310;2022-07-17T11:32:07;3.03;;;2.05;;
31270;SDS011;17904;47.420;9.310;2022-07-17T11:34:34;3.47;;;2.25;;
31270;SDS011;17904;47.420;9.310;2022-07-17T11:37:03;4.88;;;2.05;;
31270;SDS011;17904;47.420;9.310;2022-07-17T11:39:38;2.90;;;2.30;;
31270;SDS011;17904;47.420;9.310;2022-07-17T11:42:16;3.97;;;2.22;;
31270;SDS011;17904;47.420;9.310;2022-07-17T11:44:50;3.90;;;2.30;;
31270;SDS011;17904;47.420;9.310;2022-07-17T11:47:21;17.38;;;2.40;;
31270;SDS011;17904;47.420;9.310;2022-07-17T11:50:03;1.83;;;1.65;;
31270;SDS011;17904;47.420;9.310;2022-07-17T11:52:39;3.10;;;2.42;;
31270;SDS011;17904;47.420;9.310;2022-07-17T11:55:10;10.38;;;2.40;;
31270;SDS011;17904;47.420;9.310;2022-07-17T11:57:42;3.58;;;2.15;;
31270;SDS011;17904;47.420;9.310;2022-07-17T12:00:11;5.88;;;2.45;;
31270;SDS011;17904;47.420;9.310;2022-07-17T12:02:39;5.28;;;2.13;;
31270;SDS011;17904;47.420;9.310;2022-07-17T12:05:07;3.08;;;2.00;;
31270;SDS011;17904;47.420;9.310;2022-07-17T12:07:46;2.97;;;2.25;;
31270;SDS011;17904;47.420;9.310;2022-07-17T12:10:18;4.10;;;2.15;;
31270;SDS011;17904;47.420;9.310;2022-07-17T12:18:29;3.00;;;2.17;;
31270;SDS011;17904;47.420;9.310;2022-07-17T12:20:57;3.03;;;1.80;;
31270;SDS011;17904;47.420;9.310;2022-07-17T12:23:30;4.38;;;2.00;;
31270;SDS011;17904;47.420;9.310;2022-07-17T12:26:06;6.90;;;2.13;;
31270;SDS011;17904;47.420;9.310;2022-07-17T12:28:38;3.80;;;2.17;;
31270;SDS011;17904;47.420;9.310;2022-07-17T12:31:09;4.38;;;2.00;;
31270;SDS011;17904;47.420;9.310;2022-07-17T12:33:37;5.15;;;2.40;;
31270;SDS011;17904;47.420;9.310;2022-07-17T12:36:04;8.07;;;2.58;;
31270;SDS011;17904;47.420;9.310;2022-07-17T12:38:31;9.05;;;2.40;;
31270;SDS011;17904;47.420;9.310;2022-07-17T12:40:58;8.27;;;2.60;;
31270;SDS011;17904;47.420;9.310;2022-07-17T12:43:25;2.40;;;2.08;;
31270;SDS011;17904;47.420;9.310;2022-07-17T12:45:53;3.08;;;2.10;;
31270;SDS011;17904;47.420;9.310;2022-07-17T12:48:21;2.80;;;2.17;;
31270;SDS011;17904;47.420;9.310;2022-07-17T12:50:48;4.47;;;3.33;;
31270;SDS011;17904;47.420;9.310;2022-07-17T12:53:15;2.72;;;1.98;;
31270;SDS011;17904;47.420;9.310;2022-07-17T12:55:42;4.55;;;2.30;;
31270;SDS011;17904;47.420;9.310;2022-07-17T12:58:09;8.75;;;2.20;;
31270;SDS011;17904;47.420;9.310;2022-07-17T13:00:36;2.40;;;2.20;;
31270;SDS011;17904;47.420;9.310;2022-07-17T13:03:03;3.83;;;2.20;;
31270;SDS011;17904;47.420;9.310;2022-07-17T13:05:30;6.50;;;2.25;;
31270;SDS011;17904;47.420;9.310;2022-07-17T13:07:57;5.28;;;1.95;;
31270;SDS011;17904;47.420;9.310;2022-07-17T13:10:24;3.80;;;2.33;;
31270;SDS011;17904;47.420;9.310;2022-07-17T13:12:51;3.40;;;2.30;;
31270;SDS011;17904;47.420;9.310;2022-07-17T13:15:18;5.80;;;1.95;;
31270;SDS011;17904;47.420;9.310;2022-07-17T13:17:53;3.13;;;1.90;;
31270;SDS011;17904;47.420;9.310;2022-07-17T13:20:20;3.17;;;2.00;;
31270;SDS011;17904;47.420;9.310;2022-07-17T13:22:46;2.97;;;2.00;;
31270;SDS011;17904;47.420;9.310;2022-07-17T13:25:13;2.53;;;2.20;;
31270;SDS011;17904;47.420;9.310;2022-07-17T13:27:40;5.38;;;2.45;;
31270;SDS011;17904;47.420;9.310;2022-07-17T13:30:08;2.17;;;1.70;;
31270;SDS011;17904;47.420;9.310;2022-07-17T13:32:36;5.82;;;2.35;;
31270;SDS011;17904;47.420;9.310;2022-07-17T13:35:04;4.80;;;1.90;;
31270;SDS011;17904;47.420;9.310;2022-07-17T13:37:32;3.90;;;2.15;;
31270;SDS011;17904;47.420;9.310;2022-07-17T13:40:00;2.75;;;1.90;;
31270;SDS011;17904;47.420;9.310;2022-07-17T13:42:27;4.63;;;2.17;;
31270;SDS011;17904;47.420;9.310;2022-07-17T13:44:54;8.05;;;2.13;;
31270;SDS011;17904;47.420;9.310;2022-07-17T13:47:20;4.63;;;1.98;;
31270;SDS011;17904;47.420;9.310;2022-07-17T13:49:47;7.47;;;2.08;;
31270;SDS011;17904;47.420;9.310;2022-07-17T13:52:14;4.90;;;1.73;;
31270;SDS011;17904;47.420;9.310;2022-07-17T13:54:41;5.47;;;2.00;;
31270;SDS011;17904;47.420;9.310;2022-07-17T13:57:09;3.33;;;2.10;;
31270;SDS011;17904;47.420;9.310;2022-07-17T13:59:36;3.38;;;2.03;;
31270;SDS011;17904;47.420;9.310;2022-07-17T14:02:03;4.55;;;2.53;;
31270;SDS011;17904;47.420;9.310;2022-07-17T14:04:31;5.35;;;2.40;;
31270;SDS011;17904;47.420;9.310;2022-07-17T14:06:58;2.85;;;1.98;;
31270;SDS011;17904;47.420;9.310;2022-07-17T14:09:25;8.15;;;4.30;;
31270;SDS011;17904;47.420;9.310;2022-07-17T14:11:52;4.90;;;2.40;;
31270;SDS011;17904;47.420;9.310;2022-07-17T14:14:20;3.70;;;2.28;;
31270;SDS011;17904;47.420;9.310;2022-07-17T14:16:47;8.00;;;2.30;;
31270;SDS011;17904;47.420;9.310;2022-07-17T14:19:14;5.63;;;2.15;;
31270;SDS011;17904;47.420;9.310;2022-07-17T14:21:41;2.65;;;2.13;;
31270;SDS011;17904;47.420;9.310;2022-07-17T14:24:08;2.85;;;2.00;;
31270;SDS011;17904;47.420;9.310;2022-07-17T14:26:36;3.40;;;2.00;;
31270;SDS011;17904;47.420;9.310;2022-07-17T14:29:03;5.78;;;2.70;;
31270;SDS011;17904;47.420;9.310;2022-07-17T14:31:31;6.50;;;2.08;;
31270;SDS011;17904;47.420;9.310;2022-07-17T14:34:08;5.90;;;1.75;;
31270;SDS011;17904;47.420;9.310;2022-07-17T14:36:35;3.88;;;2.00;;
31270;SDS011;17904;47.420;9.310;2022-07-17T14:39:02;4.88;;;2.15;;
31270;SDS011;17904;47.420;9.310;2022-07-17T14:41:30;2.58;;;1.73;;
31270;SDS011;17904;47.420;9.310;2022-07-17T14:43:57;7.88;;;2.10;;
31270;SDS011;17904;47.420;9.310;2022-07-17T14:46:24;2.97;;;2.35;;
31270;SDS011;17904;47.420;9.310;2022-07-17T14:48:51;2.08;;;1.90;;
31270;SDS011;17904;47.420;9.310;2022-07-17T14:51:18;2.88;;;2.25;;
31270;SDS011;17904;47.420;9.310;2022-07-17T14:53:45;3.92;;;1.77;;
31270;SDS011;17904;47.420;9.310;2022-07-17T14:56:11;2.83;;;1.80;;
31270;SDS011;17904;47.420;9.310;2022-07-17T14:58:38;2.13;;;2.00;;
31270;SDS011;17904;47.420;9.310;2022-07-17T15:01:05;2.35;;;1.67;;
31270;SDS011;17904;47.420;9.310;2022-07-17T15:03:33;2.10;;;1.83;;
31270;SDS011;17904;47.420;9.310;2022-07-17T15:06:00;2.25;;;1.58;;
31270;SDS011;17904;47.420;9.310;2022-07-17T15:08:27;2.03;;;1.60;;
31270;SDS011;17904;47.420;9.310;2022-07-17T15:10:54;3.65;;;1.85;;
31270;SDS011;17904;47.420;9.310;2022-07-17T15:13:21;3.35;;;2.55;;
31270;SDS011;17904;47.420;9.310;2022-07-17T15:15:48;4.55;;;2.28;;
31270;SDS011;17904;47.420;9.310;2022-07-17T15:18:15;4.45;;;2.25;;
31270;SDS011;17904;47.420;9.310;2022-07-17T15:20:43;3.10;;;2.20;;
31270;SDS011;17904;47.420;9.310;2022-07-17T15:23:10;2.58;;;1.45;;
31270;SDS011;17904;47.420;9.310;2022-07-17T15:25:37;4.68;;;2.10;;
31270;SDS011;17904;47.420;9.310;2022-07-17T15:28:04;2.42;;;1.55;;
31270;SDS011;17904;47.420;9.310;2022-07-17T15:30:31;7.18;;;1.70;;
31270;SDS011;17904;47.420;9.310;2022-07-17T15:32:58;4.25;;;1.83;;
31270;SDS011;17904;47.420;9.310;2022-07-17T15:35:26;3.47;;;1.98;;
31270;SDS011;17904;47.420;9.310;2022-07-17T15:37:53;5.88;;;2.00;;
31270;SDS011;17904;47.420;9.310;2022-07-17T15:40:21;2.20;;;2.00;;
31270;SDS011;17904;47.420;9.310;2022-07-17T15:42:48;4.05;;;1.73;;
31270;SDS011;17904;47.420;9.310;2022-07-17T15:45:16;2.33;;;1.63;;
31270;SDS011;17904;47.420;9.310;2022-07-17T15:47:46;2.70;;;1.80;;
31270;SDS011;17904;47.420;9.310;2022-07-17T15:50:13;3.47;;;1.90;;
31270;SDS011;17904;47.420;9.310;2022-07-17T15:52:40;3.38;;;2.30;;
31270;SDS011;17904;47.420;9.310;2022-07-17T15:55:07;1.98;;;1.77;;
31270;SDS011;17904;47.420;9.310;2022-07-17T15:57:35;2.22;;;1.65;;
31270;SDS011;17904;47.420;9.310;2022-07-17T16:00:06;3.85;;;2.05;;
31270;SDS011;17904;47.420;9.310;2022-07-17T16:02:38;2.00;;;1.58;;
31270;SDS011;17904;47.420;9.310;2022-07-17T16:05:07;2.25;;;1.75;;
31270;SDS011;17904;47.420;9.310;2022-07-17T16:07:34;14.15;;;4.88;;
31270;SDS011;17904;47.420;9.310;2022-07-17T16:10:01;4.88;;;1.88;;
31270;SDS011;17904;47.420;9.310;2022-07-17T16:12:30;5.65;;;2.00;;
31270;SDS011;17904;47.420;9.310;2022-07-17T16:14:58;4.93;;;1.98;;
31270;SDS011;17904;47.420;9.310;2022-07-17T16:17:25;3.08;;;1.98;;
31270;SDS011;17904;47.420;9.310;2022-07-17T16:19:54;2.33;;;1.65;;
31270;SDS011;17904;47.420;9.310;2022-07-17T16:22:22;3.35;;;2.00;;
31270;SDS011;17904;47.420;9.310;2022-07-17T16:24:49;4.50;;;2.08;;
31270;SDS011;17904;47.420;9.310;2022-07-17T16:27:16;3.53;;;1.88;;
31270;SDS011;17904;47.420;9.310;2022-07-17T16:29:43;4.03;;;2.05;;
31270;SDS011;17904;47.420;9.310;2022-07-17T16:32:10;4.75;;;1.80;;
31270;SDS011;17904;47.420;9.310;2022-07-17T16:34:37;1.75;;;1.63;;
31270;SDS011;17904;47.420;9.310;2022-07-17T16:37:04;2.90;;;1.92;;
31270;SDS011;17904;47.420;9.310;2022-07-17T16:39:31;4.47;;;1.80;;
31270;SDS011;17904;47.420;9.310;2022-07-17T16:42:05;4.50;;;1.90;;
31270;SDS011;17904;47.420;9.310;2022-07-17T16:44:32;3.78;;;2.20;;
31270;SDS011;17904;47.420;9.310;2022-07-17T16:46:59;5.53;;;1.88;;
31270;SDS011;17904;47.420;9.310;2022-07-17T16:49:26;5.75;;;2.33;;
31270;SDS011;17904;47.420;9.310;2022-07-17T16:51:53;8.93;;;1.95;;
31270;SDS011;17904;47.420;9.310;2022-07-17T16:54:21;3.58;;;2.17;;
31270;SDS011;17904;47.420;9.310;2022-07-17T16:56:49;2.03;;;1.80;;
31270;SDS011;17904;47.420;9.310;2022-07-17T16:59:15;2.20;;;1.73;;
31270;SDS011;17904;47.420;9.310;2022-07-17T17:01:43;5.10;;;2.10;;